Garden Corners, MI

12:00 AM EDT on July 30, 2015 (GMT -0400)
Garden Corners, Michigan | | Change Station
CLOSE
Current Station
Personal Weather Station
Location: Garden Corners, MI
Elevation: 587 ft
Nearby Weather Stations

Elev 587 ft 45.90 °N, 86.55 °W | Updated 10 seconds ago

Overcast
Overcast
73.1 °F
Feels Like 76 °F
N
4.0
Wind Variable Wind from NW
Gusts 4.0 mph

Today
High -- | Low -- °F
--% Chance of Precip.
Yesterday
High -- | Low -- °F
Precip. -- in
6:26 AM 9:18 PM
Waxing Gibbous, 98% visible
Pressure 29.81 in
Visibility 10.0 miles
Clouds Overcast 6000 ft
Heat Index 76 °F
Dew Point 62 °F
Humidity 67%
Rainfall 0.00 in
Snow Depth Not available.
UV 0 out of 12
Pollen 5.60 out of 12
Air Quality Not available.
Flu Activity Not available.
METAR KISQ 300341Z AUTO 00000KT 10SM OVC060 22/15 A2981 RMK AO2

More Conditions Fewer Conditions

Pressure 29.81 in
Visibility 10.0 miles
Clouds Overcast 6000 ft
Heat Index 76 °F
Dew Point 62 °F
Humidity 67%
Rainfall 0.00 in
Snow Depth Not available.
UV 0 out of 12
Pollen 5.60 out of 12
Air Quality Not available.
Flu Activity Not available.
METAR KISQ 300341Z AUTO 00000KT 10SM OVC060 22/15 A2981 RMK AO2

More Conditions Fewer Conditions

10-Day Weather Forecast

×

Almanac

Astronomy

Jul. 30, 2015 Rise Set
Actual Time
Civil Twilight
Nautical Twilight
Astronomical Twilight
Moon
Length of Visible Light
Length of Day
Tomorrow will be .
, % of the Moon is Illuminated

Today's Extremes

State Highs State Lows

Community

WunderPhotos

Upload Photos

1,842,293 photos uploaded!

WunderBlogs® & News

Nearby

Air Quality

  Air Quality AQ Index Pollutant
Not available.

Snow Depth

Station Depth Elevation

Earthquake Activity

City Distance Mag. Time & Date
Minimum magnitude displayed is 2.5.

Coastal Water Temperatures

Place Temperature

Stations

Nearby Weather Stations

Station Location Temp. Windchill Dew Point Humidity Wind Precip. Elev Updated Type